createdAt,value
2022-08-07T00:00:08.703Z,6.6
2022-08-07T00:01:43.196Z,6.9
2022-08-07T00:02:37.221Z,7.1
2022-08-07T00:03:08.743Z,6.3
2022-08-07T00:04:09.448Z,6.6
2022-08-07T00:05:08.251Z,7.5
2022-08-07T00:06:08.693Z,6.9
2022-08-07T00:07:09.572Z,7.0
2022-08-07T00:08:08.676Z,7.2
2022-08-07T00:09:16.722Z,7.8
2022-08-07T00:10:25.571Z,6.5
2022-08-07T00:11:08.260Z,7.4
2022-08-07T00:12:08.292Z,6.8
2022-08-07T00:13:17.593Z,6.6
2022-08-07T00:14:08.528Z,6.5
2022-08-07T00:15:08.922Z,6.6
2022-08-07T00:16:08.184Z,7.4
2022-08-07T00:17:08.097Z,6.3
2022-08-07T00:18:08.727Z,6.8
2022-08-07T00:19:08.531Z,7.2
2022-08-07T00:20:08.699Z,5.9
2022-08-07T00:21:56.328Z,6.3
2022-08-07T00:22:07.994Z,5.9
2022-08-07T00:23:08.779Z,6.2
2022-08-07T00:24:08.548Z,5.7
2022-08-07T00:25:11.037Z,6.6
2022-08-07T00:26:13.047Z,6.4
2022-08-07T00:27:09.290Z,6.5
2022-08-07T00:28:08.661Z,7.1
2022-08-07T00:29:08.535Z,5.9
2022-08-07T00:30:26.505Z,5.9
2022-08-07T00:31:12.339Z,6.4
2022-08-07T00:32:08.444Z,5.9
2022-08-07T00:33:08.699Z,5.9
2022-08-07T00:34:09.294Z,6.0
2022-08-07T00:35:08.416Z,5.9
2022-08-07T00:36:08.446Z,5.5
2022-08-07T00:37:08.004Z,5.0
2022-08-07T00:38:08.724Z,6.0
2022-08-07T00:39:08.570Z,5.1
2022-08-07T00:40:10.928Z,5.4
2022-08-07T00:41:10.077Z,5.9
2022-08-07T00:42:08.107Z,5.7
2022-08-07T00:43:09.716Z,4.6
2022-08-07T00:44:08.535Z,5.5
2022-08-07T00:45:08.766Z,6.3
2022-08-07T00:46:08.197Z,5.8
2022-08-07T00:47:16.034Z,7.0
2022-08-07T00:48:10.923Z,5.8
2022-08-07T00:49:08.552Z,5.0
2022-08-07T00:50:20.351Z,5.0
2022-08-07T00:51:08.603Z,5.7
2022-08-07T00:52:08.938Z,5.3
2022-08-07T00:53:09.293Z,5.9
2022-08-07T00:54:08.805Z,5.9
2022-08-07T00:55:10.588Z,5.4
2022-08-07T00:56:13.903Z,5.7
2022-08-07T00:57:07.976Z,6.4
2022-08-07T00:58:08.672Z,5.6
2022-08-07T00:59:08.529Z,5.8
2022-08-07T01:00:08.846Z,5.1
2022-08-07T01:01:08.220Z,6.1
2022-08-07T01:02:08.915Z,4.8
2022-08-07T01:03:08.653Z,6.6
2022-08-07T01:04:08.495Z,5.4
2022-08-07T01:05:19.162Z,5.8
2022-08-07T01:06:08.574Z,6.0
2022-08-07T01:07:07.936Z,5.1
2022-08-07T01:08:09.124Z,6.0
2022-08-07T01:09:08.574Z,5.2
2022-08-07T01:10:11.222Z,5.9
2022-08-07T01:12:04.939Z,5.3
2022-08-07T01:12:28.436Z,5.9
2022-08-07T01:13:08.831Z,5.4
2022-08-07T01:14:08.903Z,5.6
2022-08-07T01:15:11.937Z,5.7
2022-08-07T01:16:08.144Z,5.6
2022-08-07T01:17:08.726Z,5.0
2022-08-07T01:18:09.598Z,6.2
2022-08-07T01:19:18.029Z,4.8
2022-08-07T01:20:09.843Z,5.4
2022-08-07T01:21:22.826Z,6.2
2022-08-07T01:22:08.771Z,5.8
2022-08-07T01:23:12.805Z,4.8
2022-08-07T01:24:08.644Z,4.9
2022-08-07T01:25:54.058Z,4.8
2022-08-07T01:26:12.004Z,5.0
2022-08-07T01:27:19.418Z,5.5
2022-08-07T01:28:08.687Z,5.4
2022-08-07T01:29:08.523Z,4.9
2022-08-07T01:30:08.930Z,4.7
2022-08-07T01:31:08.393Z,4.5
2022-08-07T01:32:13.580Z,4.9
2022-08-07T01:33:08.670Z,5.1
2022-08-07T01:34:08.479Z,6.1
2022-08-07T01:35:09.161Z,5.3
2022-08-07T01:36:08.263Z,5.4
2022-08-07T01:37:09.744Z,5.6
2022-08-07T01:38:08.623Z,5.4
2022-08-07T01:39:10.113Z,4.3
2022-08-07T01:40:14.926Z,5.4
2022-08-07T01:41:08.486Z,5.4
2022-08-07T01:42:38.292Z,5.6
2022-08-07T01:43:08.831Z,5.1
2022-08-07T01:44:09.153Z,5.1
2022-08-07T01:45:15.800Z,6.0
2022-08-07T01:46:12.362Z,4.9
2022-08-07T01:47:14.522Z,5.3
2022-08-07T01:48:20.198Z,4.6
2022-08-07T01:49:09.721Z,4.9
2022-08-07T01:50:08.590Z,5.1
2022-08-07T01:51:39.264Z,4.6
2022-08-07T01:52:08.961Z,5.1
2022-08-07T01:53:09.150Z,5.5
2022-08-07T01:54:19.186Z,5.6
2022-08-07T01:55:09.476Z,5.4
2022-08-07T01:56:15.480Z,4.5
2022-08-07T01:57:24.932Z,4.6
2022-08-07T01:58:29.114Z,5.4
2022-08-07T01:59:15.906Z,4.4
2022-08-07T02:00:13.163Z,4.4
2022-08-07T02:01:25.629Z,5.5
2022-08-07T02:02:32.786Z,4.8
2022-08-07T02:03:21.913Z,5.9
2022-08-07T02:04:12.530Z,4.3
2022-08-07T02:05:16.150Z,4.6
2022-08-07T02:06:31.691Z,4.6
2022-08-07T02:07:08.607Z,5.2
2022-08-07T02:08:14.138Z,5.2
2022-08-07T02:09:11.676Z,4.5
2022-08-07T02:10:10.232Z,5.1
2022-08-07T02:11:08.962Z,5.2
2022-08-07T02:12:09.436Z,5.4
2022-08-07T02:13:08.528Z,5.0
2022-08-07T02:14:09.585Z,4.9
2022-08-07T02:15:09.213Z,4.2
2022-08-07T02:16:08.970Z,5.3
2022-08-07T02:17:11.918Z,4.3
2022-08-07T02:18:11.658Z,4.8
2022-08-07T02:20:05.478Z,4.1
2022-08-07T02:20:17.126Z,6.4
2022-08-07T02:21:08.321Z,4.8
2022-08-07T02:22:10.530Z,5.3
2022-08-07T02:23:11.603Z,5.1
2022-08-07T02:24:08.484Z,4.3
2022-08-07T02:25:13.840Z,4.6
2022-08-07T02:26:30.538Z,4.7
2022-08-07T02:27:08.699Z,5.6
2022-08-07T02:28:08.793Z,4.4
2022-08-07T02:29:13.635Z,4.2
2022-08-07T02:30:08.731Z,5.1
2022-08-07T02:31:10.486Z,5.1
2022-08-07T02:32:10.865Z,4.7
2022-08-07T02:33:10.477Z,3.5
2022-08-07T02:34:11.553Z,4.5
2022-08-07T02:35:09.729Z,3.8
2022-08-07T02:36:28.519Z,5.1
2022-08-07T02:37:08.774Z,4.5
2022-08-07T02:38:07.934Z,4.4
2022-08-07T02:39:17.047Z,4.2
2022-08-07T02:40:29.967Z,4.4
2022-08-07T02:41:10.829Z,4.4
2022-08-07T02:42:10.218Z,4.6
2022-08-07T02:43:08.965Z,5.2
2022-08-07T02:44:09.100Z,4.0
2022-08-07T02:45:57.656Z,4.7
2022-08-07T02:46:08.572Z,5.0
2022-08-07T02:47:08.995Z,3.9
2022-08-07T02:48:10.172Z,4.6
2022-08-07T02:49:08.499Z,3.8
2022-08-07T02:50:08.745Z,4.5
2022-08-07T02:51:28.844Z,3.9
2022-08-07T02:52:08.941Z,3.9
2022-08-07T02:53:10.835Z,5.2
2022-08-07T02:54:08.988Z,4.2
2022-08-07T02:55:27.979Z,5.2
2022-08-07T02:56:20.955Z,4.1
2022-08-07T02:57:10.896Z,3.7
2022-08-07T02:58:12.952Z,4.2
2022-08-07T02:59:09.601Z,5.0
2022-08-07T03:00:10.408Z,5.2
2022-08-07T03:01:16.073Z,5.8
2022-08-07T03:02:08.654Z,4.6
2022-08-07T03:03:13.467Z,4.0
2022-08-07T03:04:12.877Z,4.7
2022-08-07T03:05:09.617Z,4.3
2022-08-07T03:06:16.516Z,5.0
2022-08-07T03:07:10.758Z,5.2
2022-08-07T03:08:10.115Z,4.1
2022-08-07T03:09:11.225Z,4.5
2022-08-07T03:10:08.619Z,3.2
2022-08-07T03:11:08.951Z,4.6
2022-08-07T03:12:22.034Z,4.4
2022-08-07T03:13:08.763Z,4.4
2022-08-07T03:14:08.160Z,4.9
2022-08-07T03:15:09.547Z,4.6
2022-08-07T03:16:08.737Z,4.3
2022-08-07T03:17:08.635Z,4.5
2022-08-07T03:18:08.386Z,4.5
2022-08-07T03:19:08.383Z,4.9
2022-08-07T03:20:09.475Z,4.9
2022-08-07T03:21:11.268Z,4.1
2022-08-07T03:22:18.765Z,4.8
2022-08-07T03:23:19.056Z,4.3
2022-08-07T03:24:20.685Z,4.8
2022-08-07T03:25:10.414Z,4.6
2022-08-07T03:26:09.145Z,4.9
2022-08-07T03:27:08.943Z,4.4
2022-08-07T03:28:37.137Z,4.1
2022-08-07T03:29:10.985Z,4.6
2022-08-07T03:30:10.702Z,4.1
2022-08-07T03:31:09.279Z,3.7
2022-08-07T03:32:13.075Z,4.4
2022-08-07T03:33:08.669Z,4.9
2022-08-07T03:34:09.468Z,4.3
2022-08-07T03:35:17.973Z,4.1
2022-08-07T03:36:09.314Z,4.0
2022-08-07T03:37:12.297Z,4.5
2022-08-07T03:38:08.900Z,3.9
2022-08-07T03:39:08.909Z,3.8
2022-08-07T03:40:15.846Z,4.4
2022-08-07T03:41:10.361Z,4.5
2022-08-07T03:42:08.537Z,4.0
2022-08-07T03:43:13.532Z,4.2
2022-08-07T03:44:07.999Z,4.4
2022-08-07T03:45:09.070Z,3.7
2022-08-07T03:46:18.225Z,4.3
2022-08-07T03:47:13.003Z,4.1
2022-08-07T03:48:10.093Z,4.8
2022-08-07T03:49:08.291Z,4.7
2022-08-07T03:50:10.578Z,4.6
2022-08-07T03:51:08.160Z,4.3
2022-08-07T03:52:15.969Z,4.7
2022-08-07T03:53:08.875Z,4.0
2022-08-07T03:54:32.965Z,3.7
2022-08-07T03:55:08.244Z,3.1
2022-08-07T03:56:09.306Z,4.0
2022-08-07T03:57:08.744Z,4.4
2022-08-07T03:59:05.708Z,4.6
2022-08-07T03:59:13.033Z,3.7
2022-08-07T04:00:08.585Z,4.5
2022-08-07T04:01:11.164Z,3.4
2022-08-07T04:02:08.730Z,3.8
2022-08-07T04:03:10.017Z,4.6
2022-08-07T04:04:08.392Z,3.8
2022-08-07T04:05:08.355Z,4.6
2022-08-07T04:06:08.355Z,3.8
2022-08-07T04:07:17.428Z,4.1
2022-08-07T04:08:18.289Z,4.3
2022-08-07T04:09:15.023Z,3.9
2022-08-07T04:10:08.229Z,3.2
2022-08-07T04:12:26.215Z,4.1
2022-08-07T04:12:27.871Z,5.3
2022-08-07T04:13:15.157Z,4.5
2022-08-07T04:14:10.978Z,3.8
2022-08-07T04:15:09.226Z,3.4
2022-08-07T04:16:10.858Z,3.5
2022-08-07T04:17:20.498Z,4.5
2022-08-07T04:18:56.738Z,4.5
2022-08-07T04:19:12.599Z,3.0
2022-08-07T04:20:09.903Z,3.2
2022-08-07T04:21:08.616Z,3.1
2022-08-07T04:22:13.329Z,3.8
2022-08-07T04:23:08.307Z,3.9
2022-08-07T04:24:08.794Z,4.5
2022-08-07T04:25:12.753Z,3.7
2022-08-07T04:26:08.246Z,3.6
2022-08-07T04:27:15.260Z,5.1
2022-08-07T04:28:09.007Z,3.8
2022-08-07T04:29:11.043Z,3.7
2022-08-07T04:30:21.027Z,4.0
2022-08-07T04:31:08.751Z,4.0
2022-08-07T04:32:10.092Z,4.5
2022-08-07T04:33:09.832Z,3.9
2022-08-07T04:34:16.617Z,3.6
2022-08-07T04:35:11.329Z,4.6
2022-08-07T04:36:08.267Z,4.4
2022-08-07T04:37:20.183Z,3.8
2022-08-07T04:38:09.112Z,4.1
2022-08-07T04:39:08.675Z,4.0
2022-08-07T04:40:08.725Z,4.3
2022-08-07T04:41:08.221Z,3.7
2022-08-07T04:42:08.019Z,3.1
2022-08-07T04:43:09.123Z,3.3
2022-08-07T04:44:12.216Z,3.8
2022-08-07T04:45:08.687Z,2.8
2022-08-07T04:46:12.321Z,3.8
2022-08-07T04:47:33.724Z,3.2
2022-08-07T04:48:19.508Z,4.0
2022-08-07T04:49:24.232Z,2.9
2022-08-07T04:50:18.957Z,3.4
2022-08-07T04:51:12.961Z,4.1
2022-08-07T04:52:18.659Z,2.7
2022-08-07T04:53:40.251Z,3.2
2022-08-07T04:54:22.663Z,3.9
2022-08-07T04:58:11.509Z,4.6
2022-08-07T04:58:12.865Z,3.0
2022-08-07T04:58:24.427Z,3.5
2022-08-07T04:58:38.812Z,3.0
2022-08-07T05:00:08.004Z,3.6
2022-08-07T05:00:18.824Z,3.3
2022-08-07T05:01:18.290Z,3.7
2022-08-07T05:02:16.681Z,3.4
2022-08-07T05:03:59.843Z,3.9
2022-08-07T05:04:17.748Z,3.6
2022-08-07T05:05:53.231Z,2.9
2022-08-07T05:06:19.761Z,3.5
2022-08-07T05:07:20.510Z,3.6
2022-08-07T05:08:17.168Z,2.8
2022-08-07T05:09:45.923Z,3.5
2022-08-07T05:10:11.748Z,3.5
2022-08-07T05:11:09.299Z,3.6
2022-08-07T05:12:09.152Z,2.9
2022-08-07T05:14:53.261Z,3.9
2022-08-07T05:14:54.051Z,2.8
2022-08-07T05:15:09.973Z,3.2
2022-08-07T05:16:09.051Z,3.2
2022-08-07T05:17:11.992Z,4.0
2022-08-07T05:18:13.317Z,2.4
2022-08-07T05:19:11.590Z,2.4
2022-08-07T05:20:10.272Z,2.5
2022-08-07T05:21:10.645Z,2.8
2022-08-07T05:22:10.111Z,2.5
2022-08-07T05:23:19.449Z,4.0
2022-08-07T05:24:12.294Z,4.5
2022-08-07T05:25:11.709Z,3.9
2022-08-07T05:26:23.829Z,3.6
2022-08-07T05:27:14.521Z,3.8
2022-08-07T05:28:19.901Z,3.7
2022-08-07T05:29:08.620Z,3.5
2022-08-07T05:30:08.551Z,3.5
2022-08-07T05:31:10.803Z,3.3
2022-08-07T05:32:09.891Z,3.3
2022-08-07T05:33:08.550Z,3.6
2022-08-07T05:34:11.062Z,2.8
2022-08-07T05:35:09.318Z,2.7
2022-08-07T05:36:12.043Z,3.1
2022-08-07T05:37:08.868Z,2.9
2022-08-07T05:38:10.038Z,2.6
2022-08-07T05:40:06.323Z,2.8
2022-08-07T05:40:18.523Z,2.4
2022-08-07T05:41:14.289Z,2.0
2022-08-07T05:42:12.393Z,2.2
2022-08-07T05:43:10.567Z,2.6
2022-08-07T05:44:12.502Z,2.3
2022-08-07T05:45:26.117Z,3.1
2022-08-07T05:46:09.292Z,2.9
2022-08-07T05:47:11.799Z,2.1
2022-08-07T05:48:08.810Z,3.1
2022-08-07T05:49:11.693Z,2.4
2022-08-07T05:50:08.107Z,2.9
2022-08-07T05:51:09.303Z,2.6
2022-08-07T05:52:08.406Z,2.2
2022-08-07T05:53:08.245Z,2.7
2022-08-07T05:54:09.238Z,2.2
2022-08-07T05:55:10.957Z,2.1
2022-08-07T05:56:08.988Z,2.0
2022-08-07T05:57:08.693Z,2.9
2022-08-07T05:58:09.174Z,2.6
2022-08-07T05:59:12.282Z,2.1
2022-08-07T06:00:09.252Z,2.9
2022-08-07T06:01:10.802Z,2.5
2022-08-07T06:02:12.589Z,2.6
2022-08-07T06:03:08.577Z,2.6
2022-08-07T06:04:09.057Z,2.2
2022-08-07T06:05:11.043Z,2.2
2022-08-07T06:06:10.466Z,2.4
2022-08-07T06:07:08.797Z,2.2
2022-08-07T06:08:29.553Z,2.3
2022-08-07T06:09:08.421Z,2.6
2022-08-07T06:10:15.109Z,1.7
2022-08-07T06:11:08.643Z,2.4
2022-08-07T06:12:08.580Z,2.1
2022-08-07T06:13:13.348Z,1.9
2022-08-07T06:14:11.730Z,1.9
2022-08-07T06:15:10.445Z,2.4
2022-08-07T06:16:10.251Z,2.4
2022-08-07T06:17:08.148Z,2.0
2022-08-07T06:18:10.362Z,2.8
2022-08-07T06:19:08.770Z,2.4
2022-08-07T06:20:12.833Z,2.2
2022-08-07T06:22:15.369Z,2.5
2022-08-07T06:22:16.919Z,3.4
2022-08-07T06:23:25.033Z,2.5
2022-08-07T06:24:46.179Z,1.9
2022-08-07T06:25:10.258Z,2.5
2022-08-07T06:26:11.950Z,1.5
2022-08-07T06:27:07.946Z,1.7
2022-08-07T06:28:09.826Z,2.7
2022-08-07T06:29:08.495Z,2.3
2022-08-07T06:30:08.605Z,1.2
2022-08-07T06:31:08.090Z,2.3
2022-08-07T06:32:07.968Z,1.9
2022-08-07T06:33:09.966Z,2.3
2022-08-07T06:34:08.411Z,2.6
2022-08-07T06:35:17.578Z,2.1
2022-08-07T06:36:13.767Z,2.8
2022-08-07T06:37:07.940Z,1.8
2022-08-07T06:38:19.209Z,1.8
2022-08-07T06:40:15.722Z,1.4
2022-08-07T06:40:16.776Z,2.0
2022-08-07T06:41:13.182Z,1.9
2022-08-07T06:42:10.806Z,2.1
2022-08-07T06:43:21.572Z,2.2
2022-08-07T06:44:10.850Z,1.7
2022-08-07T06:45:11.124Z,2.8
2022-08-07T06:46:11.613Z,1.7
2022-08-07T06:47:12.285Z,2.2
2022-08-07T06:48:08.701Z,1.6
2022-08-07T06:49:08.487Z,2.3
2022-08-07T06:50:08.736Z,1.8
2022-08-07T06:51:09.562Z,1.5
2022-08-07T06:52:10.295Z,1.8
2022-08-07T06:53:49.198Z,2.6
2022-08-07T06:55:29.668Z,1.6
2022-08-07T06:55:34.300Z,1.5
2022-08-07T06:56:15.335Z,1.8
2022-08-07T06:57:08.386Z,2.9
2022-08-07T06:58:10.243Z,2.0
2022-08-07T07:00:12.382Z,1.8
2022-08-07T07:00:12.383Z,2.0
2022-08-07T07:01:09.751Z,1.8
2022-08-07T07:02:12.915Z,2.0
2022-08-07T07:03:13.600Z,1.4
2022-08-07T07:04:28.329Z,1.7
2022-08-07T07:05:08.553Z,1.3
2022-08-07T07:06:11.320Z,2.1
2022-08-07T07:07:18.942Z,1.9
2022-08-07T07:08:10.054Z,1.7
2022-08-07T07:09:31.136Z,2.3
2022-08-07T07:10:08.478Z,1.6
2022-08-07T07:11:13.528Z,2.0
2022-08-07T07:12:15.662Z,1.9
2022-08-07T07:13:16.166Z,2.7
2022-08-07T07:14:09.920Z,1.7
2022-08-07T07:15:26.017Z,1.9
2022-08-07T07:16:10.452Z,2.2
2022-08-07T07:17:16.229Z,1.5
2022-08-07T07:18:33.122Z,1.9
2022-08-07T07:19:54.631Z,1.9
2022-08-07T07:20:13.324Z,1.6
2022-08-07T07:21:13.504Z,2.1
2022-08-07T07:22:33.789Z,2.5
2022-08-07T07:24:09.693Z,1.5
2022-08-07T07:24:12.645Z,1.7
2022-08-07T07:26:30.631Z,1.4
2022-08-07T07:26:33.052Z,2.0
2022-08-07T07:27:08.972Z,1.4
2022-08-07T07:28:42.217Z,2.1
2022-08-07T07:29:38.373Z,1.6
2022-08-07T07:30:12.137Z,1.8
2022-08-07T07:31:24.989Z,1.4
2022-08-07T07:32:10.796Z,1.7
2022-08-07T07:33:11.507Z,2.4
2022-08-07T07:34:10.034Z,1.9
2022-08-07T07:35:09.779Z,1.9
2022-08-07T07:36:13.104Z,1.9
2022-08-07T07:37:21.987Z,2.3
2022-08-07T07:38:09.841Z,1.2
2022-08-07T07:39:09.361Z,1.3
2022-08-07T07:40:14.965Z,1.4
2022-08-07T07:41:09.851Z,2.1
2022-08-07T07:42:13.991Z,2.2
2022-08-07T07:43:14.971Z,1.3
2022-08-07T07:44:17.223Z,1.7
2022-08-07T07:45:09.587Z,1.4
2022-08-07T07:46:39.773Z,1.4
2022-08-07T07:47:14.307Z,1.7
2022-08-07T07:48:11.206Z,1.6
2022-08-07T07:50:33.698Z,1.8
2022-08-07T07:50:35.718Z,1.2
2022-08-07T07:51:08.638Z,1.8
2022-08-07T07:52:08.767Z,1.4
2022-08-07T07:53:20.335Z,1.9
2022-08-07T07:54:10.650Z,1.5
2022-08-07T07:55:09.097Z,1.5
2022-08-07T07:56:08.268Z,1.7
2022-08-07T07:57:09.024Z,2.2
2022-08-07T07:58:09.189Z,1.9
2022-08-07T07:59:08.931Z,1.8
2022-08-07T08:00:09.181Z,1.4
2022-08-07T08:02:00.854Z,1.6
2022-08-07T08:02:10.666Z,2.2
2022-08-07T08:03:09.547Z,1.9
2022-08-07T08:04:11.857Z,1.4
2022-08-07T08:05:14.162Z,2.3
2022-08-07T08:06:11.544Z,1.5
2022-08-07T08:07:09.049Z,1.8
2022-08-07T08:08:09.779Z,1.5
2022-08-07T08:09:09.727Z,1.7
2022-08-07T08:10:09.258Z,1.4
2022-08-07T08:11:16.560Z,1.5
2022-08-07T08:12:08.451Z,1.8
2022-08-07T08:13:10.509Z,0.7
2022-08-07T08:14:08.707Z,1.9
2022-08-07T08:15:08.798Z,1.6
2022-08-07T08:16:12.756Z,1.6
2022-08-07T08:17:56.418Z,1.1
2022-08-07T08:18:17.952Z,1.4
2022-08-07T08:20:15.629Z,1.5
2022-08-07T08:20:17.199Z,1.0
2022-08-07T08:21:08.428Z,1.6
2022-08-07T08:22:10.651Z,1.8
2022-08-07T08:23:09.494Z,1.0
2022-08-07T08:24:08.972Z,0.8
2022-08-07T08:25:25.103Z,1.2
2022-08-07T08:26:08.653Z,1.5
2022-08-07T08:27:09.385Z,2.1
2022-08-07T08:28:11.527Z,1.7
2022-08-07T08:29:10.008Z,1.7
2022-08-07T08:30:09.989Z,1.7
2022-08-07T08:31:13.826Z,1.5
2022-08-07T08:32:18.191Z,1.0
2022-08-07T08:33:15.244Z,1.1
2022-08-07T08:34:10.130Z,1.2
2022-08-07T08:35:09.543Z,2.1
2022-08-07T08:36:09.300Z,1.8
2022-08-07T08:37:09.895Z,1.6
2022-08-07T08:38:11.071Z,1.8
2022-08-07T08:39:09.256Z,1.7
2022-08-07T08:40:16.194Z,1.8
2022-08-07T08:41:18.999Z,2.0
2022-08-07T08:42:26.024Z,1.6
2022-08-07T08:43:15.960Z,1.2
2022-08-07T08:44:29.229Z,1.1
2022-08-07T08:45:13.799Z,2.5
2022-08-07T08:46:16.003Z,1.3
2022-08-07T08:47:12.895Z,1.4
2022-08-07T08:48:16.527Z,1.0
2022-08-07T08:49:33.452Z,1.8
2022-08-07T08:50:28.259Z,1.8
2022-08-07T08:51:14.630Z,1.6
2022-08-07T08:52:16.424Z,1.5
2022-08-07T08:53:18.557Z,1.7
2022-08-07T08:54:15.985Z,1.5
2022-08-07T08:55:21.382Z,1.3
2022-08-07T08:56:10.546Z,1.2
2022-08-07T08:57:12.533Z,2.2
2022-08-07T08:58:24.699Z,2.5
2022-08-07T08:59:13.986Z,3.2
2022-08-07T09:00:09.535Z,2.8
2022-08-07T09:01:14.990Z,3.3
2022-08-07T09:02:15.563Z,3.4
2022-08-07T09:03:13.543Z,3.3
2022-08-07T09:04:25.913Z,2.9
2022-08-07T09:05:31.937Z,3.1
2022-08-07T09:06:16.037Z,2.6
2022-08-07T09:07:12.878Z,3.9
2022-08-07T09:08:17.892Z,3.4
2022-08-07T09:09:23.810Z,4.4
2022-08-07T09:10:19.015Z,3.6
2022-08-07T09:11:24.994Z,2.8
2022-08-07T09:12:30.228Z,4.0
2022-08-07T09:13:18.494Z,2.9
2022-08-07T09:14:15.548Z,3.8
2022-08-07T09:16:22.942Z,3.9
2022-08-07T09:16:29.737Z,4.2
2022-08-07T09:17:11.805Z,3.9
2022-08-07T09:18:15.709Z,4.6
2022-08-07T09:19:51.964Z,3.8
2022-08-07T09:20:35.432Z,2.8
2022-08-07T09:21:57.952Z,3.6
2022-08-07T09:24:27.060Z,3.1
2022-08-07T09:24:30.793Z,3.3
2022-08-07T09:24:52.477Z,3.1
2022-08-07T09:25:21.500Z,3.3
2022-08-07T09:26:20.875Z,3.2
2022-08-07T09:27:13.608Z,3.4
2022-08-07T09:30:04.599Z,3.0
2022-08-07T09:30:06.615Z,3.7
2022-08-07T09:30:09.381Z,3.9
2022-08-07T09:31:26.936Z,3.5
2022-08-07T09:32:31.191Z,2.8
2022-08-07T09:33:16.495Z,3.3
2022-08-07T09:34:15.896Z,2.6
2022-08-07T09:36:02.953Z,2.9
2022-08-07T09:36:13.466Z,3.3
2022-08-07T09:37:13.270Z,3.7
2022-08-07T09:38:13.198Z,3.9
2022-08-07T09:39:54.304Z,4.3
2022-08-07T09:40:18.151Z,4.5
2022-08-07T09:41:27.778Z,3.6
2022-08-07T09:42:33.014Z,3.9
2022-08-07T09:43:18.624Z,4.0
2022-08-07T09:44:32.928Z,3.8
2022-08-07T09:47:25.741Z,5.4
2022-08-07T09:47:26.104Z,4.2
2022-08-07T09:47:50.784Z,5.0
2022-08-07T09:48:19.564Z,4.5
2022-08-07T09:50:02.316Z,4.8
2022-08-07T09:50:26.399Z,4.4
2022-08-07T09:52:10.008Z,5.0
2022-08-07T09:52:34.273Z,4.9
2022-08-07T09:53:08.561Z,4.3
2022-08-07T09:54:16.371Z,5.1
2022-08-07T09:56:02.789Z,5.4
2022-08-07T09:56:19.943Z,4.6
2022-08-07T09:57:13.666Z,4.9
2022-08-07T09:58:22.007Z,3.9
2022-08-07T09:59:44.590Z,4.8
2022-08-07T10:00:09.229Z,4.3
2022-08-07T10:01:52.123Z,4.4
2022-08-07T10:02:15.531Z,5.2
2022-08-07T10:04:06.151Z,3.6
2022-08-07T10:04:16.176Z,5.2
2022-08-07T10:05:19.015Z,5.1
2022-08-07T10:06:24.591Z,5.6
2022-08-07T10:07:39.912Z,5.3
2022-08-07T10:08:13.464Z,5.1
2022-08-07T10:09:42.698Z,5.1
2022-08-07T10:10:28.273Z,5.3
2022-08-07T10:11:59.705Z,4.2
2022-08-07T10:12:21.572Z,4.7
2022-08-07T10:13:29.867Z,4.0
2022-08-07T10:14:12.859Z,4.5
2022-08-07T10:15:15.335Z,4.4
2022-08-07T10:16:12.844Z,4.9
2022-08-07T10:17:16.478Z,3.7
2022-08-07T10:18:19.021Z,5.1
2022-08-07T10:19:19.013Z,5.1
2022-08-07T10:20:30.416Z,4.0
2022-08-07T10:22:14.277Z,6.6
2022-08-07T10:22:33.771Z,5.9
2022-08-07T10:23:13.404Z,5.9
2022-08-07T10:24:21.404Z,5.4
2022-08-07T10:25:22.879Z,5.8
2022-08-07T10:26:25.966Z,5.2
2022-08-07T10:27:46.448Z,6.0
2022-08-07T10:28:21.541Z,5.0
2022-08-07T10:29:30.501Z,4.9
2022-08-07T10:30:16.714Z,4.6
2022-08-07T10:31:13.304Z,5.3
2022-08-07T10:32:16.480Z,5.8
2022-08-07T10:34:06.389Z,5.8
2022-08-07T10:34:27.318Z,5.3
2022-08-07T10:35:25.996Z,4.7
2022-08-07T10:36:18.544Z,4.2
2022-08-07T10:38:00.410Z,5.3
2022-08-07T10:38:42.019Z,4.7
2022-08-07T10:39:42.233Z,4.6
2022-08-07T10:40:18.830Z,5.7
2022-08-07T10:41:14.572Z,4.8
2022-08-07T10:42:21.249Z,6.1
2022-08-07T10:43:34.063Z,4.6
2022-08-07T10:44:19.469Z,5.1
2022-08-07T10:45:13.923Z,5.5
2022-08-07T10:46:17.929Z,4.9
2022-08-07T10:47:26.917Z,4.1
2022-08-07T10:48:26.001Z,5.1
2022-08-07T10:49:24.501Z,4.7
2022-08-07T10:50:30.453Z,4.6
2022-08-07T10:51:16.763Z,5.2
2022-08-07T10:52:13.956Z,5.1
2022-08-07T10:53:22.610Z,4.5
2022-08-07T10:54:19.557Z,5.1
2022-08-07T10:55:27.160Z,6.2
2022-08-07T10:56:20.687Z,5.3
2022-08-07T10:57:34.844Z,5.4
2022-08-07T10:58:32.086Z,5.2
2022-08-07T10:59:21.612Z,5.4
2022-08-07T11:00:09.368Z,5.9
2022-08-07T11:01:23.538Z,5.1
2022-08-07T11:02:33.166Z,4.6
2022-08-07T11:03:16.356Z,5.0
2022-08-07T11:04:31.465Z,5.7
2022-08-07T11:05:12.127Z,5.3
2022-08-07T11:06:18.297Z,4.1
2022-08-07T11:07:24.626Z,4.5
2022-08-07T11:08:30.199Z,5.6
2022-08-07T11:09:13.079Z,4.8
2022-08-07T11:10:12.879Z,4.2
2022-08-07T11:11:10.944Z,5.6
2022-08-07T11:12:13.799Z,4.2
2022-08-07T11:13:42.315Z,4.4
2022-08-07T11:14:43.410Z,4.6
2022-08-07T11:15:17.446Z,3.6
2022-08-07T11:16:10.689Z,3.9
2022-08-07T11:17:23.227Z,4.1
2022-08-07T11:18:15.587Z,4.8
2022-08-07T11:19:21.742Z,4.5
2022-08-07T11:20:22.511Z,4.2
2022-08-07T11:21:16.058Z,4.5
2022-08-07T11:22:18.807Z,5.1
2022-08-07T11:23:12.754Z,4.2
2022-08-07T11:24:13.528Z,4.5
2022-08-07T11:25:12.196Z,4.0
2022-08-07T11:26:16.099Z,4.4
2022-08-07T11:27:13.604Z,3.6
2022-08-07T11:28:16.725Z,5.2
2022-08-07T11:29:42.229Z,3.5
2022-08-07T11:30:18.471Z,4.7
2022-08-07T11:31:35.119Z,4.2
2022-08-07T11:32:15.642Z,4.7
2022-08-07T11:33:15.545Z,5.4
2022-08-07T11:34:20.961Z,4.7
2022-08-07T11:35:10.240Z,4.9
2022-08-07T11:36:30.890Z,4.4
2022-08-07T11:37:15.566Z,4.6
2022-08-07T11:38:21.631Z,4.1
2022-08-07T11:39:14.547Z,3.9
2022-08-07T11:40:19.205Z,4.2
2022-08-07T11:41:22.088Z,4.0
2022-08-07T11:42:18.657Z,4.0
2022-08-07T11:43:18.899Z,3.6
2022-08-07T11:44:17.124Z,3.6
2022-08-07T11:45:16.107Z,3.8
2022-08-07T11:46:13.214Z,3.7
2022-08-07T11:47:21.631Z,4.4
2022-08-07T11:48:29.373Z,4.1
2022-08-07T11:49:50.131Z,3.8
2022-08-07T11:50:32.321Z,4.0
2022-08-07T11:51:41.317Z,3.9
2022-08-07T11:52:29.269Z,3.8
2022-08-07T11:53:25.390Z,4.1
2022-08-07T11:54:22.244Z,4.1
2022-08-07T11:55:18.809Z,4.0
2022-08-07T11:56:26.699Z,4.8
2022-08-07T11:57:14.155Z,4.5
2022-08-07T11:58:33.421Z,4.6
2022-08-07T12:00:08.371Z,3.7
2022-08-07T12:00:19.594Z,4.1
2022-08-07T12:01:19.945Z,3.6
2022-08-07T12:02:30.154Z,4.2
2022-08-07T12:03:44.448Z,4.6
2022-08-07T12:04:31.098Z,4.7
2022-08-07T12:05:41.745Z,3.9
2022-08-07T12:06:39.668Z,3.6
2022-08-07T12:07:27.659Z,3.7
2022-08-07T12:08:29.510Z,3.8
2022-08-07T12:09:26.494Z,3.7
2022-08-07T12:10:12.493Z,4.0
2022-08-07T12:11:22.955Z,3.6
2022-08-07T12:12:12.604Z,4.4
2022-08-07T12:13:35.321Z,4.2
2022-08-07T12:14:22.371Z,3.9
2022-08-07T12:15:17.253Z,3.6
2022-08-07T12:16:11.369Z,4.1
2022-08-07T12:17:20.322Z,3.8
2022-08-07T12:18:30.674Z,4.1
2022-08-07T12:19:21.421Z,3.2
2022-08-07T12:20:21.139Z,4.1
2022-08-07T12:21:21.020Z,3.4
2022-08-07T12:22:37.386Z,3.5
2022-08-07T12:23:37.194Z,3.3
2022-08-07T12:24:38.501Z,4.3
2022-08-07T12:25:17.881Z,4.7
2022-08-07T12:26:28.625Z,3.2
2022-08-07T12:27:16.528Z,3.1
2022-08-07T12:28:13.565Z,4.4
2022-08-07T12:29:37.923Z,3.5
2022-08-07T12:30:08.621Z,3.9
2022-08-07T12:31:17.209Z,3.5
2022-08-07T12:32:12.951Z,4.1
2022-08-07T12:33:18.870Z,3.0
2022-08-07T12:34:11.149Z,3.4
2022-08-07T12:35:11.979Z,4.1
2022-08-07T12:36:11.010Z,3.4
2022-08-07T12:37:16.923Z,3.9
2022-08-07T12:38:13.094Z,4.1
2022-08-07T12:39:42.856Z,2.9
2022-08-07T12:40:36.400Z,3.3
2022-08-07T12:41:09.892Z,3.6
2022-08-07T12:42:09.682Z,3.4
2022-08-07T12:43:10.141Z,2.9
2022-08-07T12:44:13.094Z,3.4
2022-08-07T12:45:15.577Z,3.6
2022-08-07T12:46:15.810Z,4.6
2022-08-07T12:47:26.949Z,3.1
2022-08-07T12:48:28.317Z,3.2
2022-08-07T12:49:39.553Z,3.1
2022-08-07T12:50:38.487Z,3.4
2022-08-07T12:51:13.232Z,4.3
2022-08-07T12:52:14.377Z,2.2
2022-08-07T12:53:18.828Z,3.6
2022-08-07T12:54:37.894Z,3.8
2022-08-07T12:55:16.565Z,3.2
2022-08-07T12:56:19.066Z,3.0
2022-08-07T12:57:09.910Z,4.1
2022-08-07T12:58:11.405Z,3.5
2022-08-07T12:59:10.172Z,3.7
2022-08-07T13:00:16.519Z,3.9
2022-08-07T13:01:16.096Z,4.7
2022-08-07T13:02:13.371Z,3.4
2022-08-07T13:03:54.970Z,3.3
2022-08-07T13:04:34.018Z,2.5
2022-08-07T13:06:04.042Z,2.6
2022-08-07T13:06:16.933Z,2.5
2022-08-07T13:07:18.038Z,3.3
2022-08-07T13:08:31.055Z,3.0
2022-08-07T13:10:19.534Z,3.3
2022-08-07T13:10:37.552Z,2.9
2022-08-07T13:11:28.054Z,3.1
2022-08-07T13:12:15.320Z,3.3
2022-08-07T13:13:48.682Z,3.5
2022-08-07T13:14:22.051Z,3.5
2022-08-07T13:15:14.148Z,2.8
2022-08-07T13:16:16.152Z,3.2
2022-08-07T13:17:18.196Z,2.9
2022-08-07T13:18:26.796Z,3.2
2022-08-07T13:19:21.832Z,2.3
2022-08-07T13:20:12.853Z,2.8
2022-08-07T13:21:11.987Z,2.1
2022-08-07T13:22:29.412Z,3.2
2022-08-07T13:24:01.441Z,3.1
2022-08-07T13:24:29.445Z,3.1
2022-08-07T13:25:24.274Z,3.6
2022-08-07T13:26:26.989Z,3.5
2022-08-07T13:27:20.790Z,2.1
2022-08-07T13:28:19.260Z,2.0
2022-08-07T13:29:24.041Z,2.7
2022-08-07T13:30:18.854Z,3.4
2022-08-07T13:31:16.295Z,2.6
2022-08-07T13:32:31.876Z,2.7
2022-08-07T13:34:31.778Z,2.5
2022-08-07T13:34:33.811Z,3.2
2022-08-07T13:35:15.837Z,2.6
2022-08-07T13:36:17.677Z,1.7
2022-08-07T13:37:25.074Z,2.2
2022-08-07T13:38:26.531Z,2.5
2022-08-07T13:39:28.624Z,2.4
2022-08-07T13:40:35.838Z,2.3
2022-08-07T13:41:16.621Z,3.0
2022-08-07T13:42:09.002Z,1.7
2022-08-07T13:43:12.257Z,2.0
2022-08-07T13:44:10.316Z,3.0
2022-08-07T13:46:06.145Z,2.8
2022-08-07T13:46:21.040Z,2.8